sensor_id;sensor_type;location;lat;lon;timestamp;temperature;humidity
69543;SHT31;56762;49.494;11.768;2023-01-28T00:01:32;0.77;86.49
69543;SHT31;56762;49.494;11.768;2023-01-28T00:03:59;0.75;86.48
69543;SHT31;56762;49.494;11.768;2023-01-28T00:06:29;0.72;86.59
69543;SHT31;56762;49.494;11.768;2023-01-28T00:08:57;0.69;86.57
69543;SHT31;56762;49.494;11.768;2023-01-28T00:11:25;0.68;86.53
69543;SHT31;56762;49.494;11.768;2023-01-28T00:13:53;0.69;86.34
69543;SHT31;56762;49.494;11.768;2023-01-28T00:16:22;0.69;86.41
69543;SHT31;56762;49.494;11.768;2023-01-28T00:18:53;0.65;86.43
69543;SHT31;56762;49.494;11.768;2023-01-28T00:21:20;0.65;86.66
69543;SHT31;56762;49.494;11.768;2023-01-28T00:23:53;0.71;86.55
69543;SHT31;56762;49.494;11.768;2023-01-28T00:26:22;0.72;85.79
69543;SHT31;56762;49.494;11.768;2023-01-28T00:28:51;0.75;85.83
69543;SHT31;56762;49.494;11.768;2023-01-28T00:31:21;0.75;85.83
69543;SHT31;56762;49.494;11.768;2023-01-28T00:33:50;0.75;85.87
69543;SHT31;56762;49.494;11.768;2023-01-28T00:36:20;0.77;85.83
69543;SHT31;56762;49.494;11.768;2023-01-28T00:38:49;0.78;85.95
69543;SHT31;56762;49.494;11.768;2023-01-28T00:41:19;0.77;85.91
69543;SHT31;56762;49.494;11.768;2023-01-28T00:43:49;0.78;85.88
69543;SHT31;56762;49.494;11.768;2023-01-28T00:46:18;0.84;85.76
69543;SHT31;56762;49.494;11.768;2023-01-28T00:48:46;0.78;85.29
69543;SHT31;56762;49.494;11.768;2023-01-28T00:51:16;0.81;85.72
69543;SHT31;56762;49.494;11.768;2023-01-28T00:53:46;0.82;85.86
69543;SHT31;56762;49.494;11.768;2023-01-28T00:56:17;0.82;85.95
69543;SHT31;56762;49.494;11.768;2023-01-28T00:58:46;0.79;86.07
69543;SHT31;56762;49.494;11.768;2023-01-28T01:01:16;0.75;86.26
69543;SHT31;56762;49.494;11.768;2023-01-28T01:03:45;0.74;86.58
69543;SHT31;56762;49.494;11.768;2023-01-28T01:06:14;0.77;86.70
69543;SHT31;56762;49.494;11.768;2023-01-28T01:08:42;0.77;86.47
69543;SHT31;56762;49.494;11.768;2023-01-28T01:11:17;0.72;86.31
69543;SHT31;56762;49.494;11.768;2023-01-28T01:13:49;0.72;86.30
69543;SHT31;56762;49.494;11.768;2023-01-28T01:16:18;0.78;86.46
69543;SHT31;56762;49.494;11.768;2023-01-28T01:18:45;0.75;86.19
69543;SHT31;56762;49.494;11.768;2023-01-28T01:21:16;0.79;85.83
69543;SHT31;56762;49.494;11.768;2023-01-28T01:23:45;0.79;85.82
69543;SHT31;56762;49.494;11.768;2023-01-28T01:26:14;0.75;85.47
69543;SHT31;56762;49.494;11.768;2023-01-28T01:28:43;0.75;86.47
69543;SHT31;56762;49.494;11.768;2023-01-28T01:31:13;0.74;86.35
69543;SHT31;56762;49.494;11.768;2023-01-28T01:33:42;0.78;86.75
69543;SHT31;56762;49.494;11.768;2023-01-28T01:36:11;0.78;86.65
69543;SHT31;56762;49.494;11.768;2023-01-28T01:38:40;0.84;86.30
69543;SHT31;56762;49.494;11.768;2023-01-28T01:41:20;0.82;86.11
69543;SHT31;56762;49.494;11.768;2023-01-28T01:43:52;0.85;86.32
69543;SHT31;56762;49.494;11.768;2023-01-28T01:46:23;0.87;86.50
69543;SHT31;56762;49.494;11.768;2023-01-28T01:48:54;0.87;86.27
69543;SHT31;56762;49.494;11.768;2023-01-28T01:51:26;0.85;86.42
69543;SHT31;56762;49.494;11.768;2023-01-28T01:53:55;0.88;86.71
69543;SHT31;56762;49.494;11.768;2023-01-28T01:56:27;0.87;86.77
69543;SHT31;56762;49.494;11.768;2023-01-28T01:58:59;0.89;86.70
69543;SHT31;56762;49.494;11.768;2023-01-28T02:01:29;0.84;86.52
69543;SHT31;56762;49.494;11.768;2023-01-28T02:04:03;0.82;86.77
69543;SHT31;56762;49.494;11.768;2023-01-28T02:06:33;0.84;86.74
69543;SHT31;56762;49.494;11.768;2023-01-28T02:09:02;0.88;86.53
69543;SHT31;56762;49.494;11.768;2023-01-28T02:11:31;0.88;86.62
69543;SHT31;56762;49.494;11.768;2023-01-28T02:14:03;0.89;86.46
69543;SHT31;56762;49.494;11.768;2023-01-28T02:16:31;0.88;86.70
69543;SHT31;56762;49.494;11.768;2023-01-28T02:19:00;0.87;86.54
69543;SHT31;56762;49.494;11.768;2023-01-28T02:22:02;0.87;86.66
69543;SHT31;56762;49.494;11.768;2023-01-28T02:24:50;0.91;86.33
69543;SHT31;56762;49.494;11.768;2023-01-28T02:27:28;0.87;86.24
69543;SHT31;56762;49.494;11.768;2023-01-28T02:30:04;0.82;86.82
69543;SHT31;56762;49.494;11.768;2023-01-28T02:32:39;0.79;86.89
69543;SHT31;56762;49.494;11.768;2023-01-28T02:35:12;0.79;87.21
69543;SHT31;56762;49.494;11.768;2023-01-28T02:37:45;0.74;86.78
69543;SHT31;56762;49.494;11.768;2023-01-28T02:40:18;0.75;86.88
69543;SHT31;56762;49.494;11.768;2023-01-28T02:42:48;0.75;86.87
69543;SHT31;56762;49.494;11.768;2023-01-28T02:49:01;0.78;87.14
69543;SHT31;56762;49.494;11.768;2023-01-28T02:51:38;0.78;86.72
69543;SHT31;56762;49.494;11.768;2023-01-28T02:54:14;0.74;86.95
69543;SHT31;56762;49.494;11.768;2023-01-28T02:56:50;0.74;87.34
69543;SHT31;56762;49.494;11.768;2023-01-28T02:59:25;0.77;87.41
69543;SHT31;56762;49.494;11.768;2023-01-28T03:02:01;0.79;87.27
69543;SHT31;56762;49.494;11.768;2023-01-28T03:04:34;0.81;87.48
69543;SHT31;56762;49.494;11.768;2023-01-28T03:07:07;0.84;87.33
69543;SHT31;56762;49.494;11.768;2023-01-28T03:09:37;0.88;86.81
69543;SHT31;56762;49.494;11.768;2023-01-28T03:12:06;0.88;86.86
69543;SHT31;56762;49.494;11.768;2023-01-28T03:14:55;0.87;86.72
69543;SHT31;56762;49.494;11.768;2023-01-28T03:17:44;0.87;86.71
69543;SHT31;56762;49.494;11.768;2023-01-28T03:20:37;0.84;86.80
69543;SHT31;56762;49.494;11.768;2023-01-28T03:23:28;0.79;87.11
69543;SHT31;56762;49.494;11.768;2023-01-28T03:26:16;0.79;86.91
69543;SHT31;56762;49.494;11.768;2023-01-28T03:29:09;0.82;87.13
69543;SHT31;56762;49.494;11.768;2023-01-28T03:31:57;0.79;86.78
69543;SHT31;56762;49.494;11.768;2023-01-28T03:34:44;0.81;87.04
69543;SHT31;56762;49.494;11.768;2023-01-28T03:37:32;0.79;87.17
69543;SHT31;56762;49.494;11.768;2023-01-28T03:40:02;0.79;86.84
69543;SHT31;56762;49.494;11.768;2023-01-28T03:42:32;0.78;87.43
69543;SHT31;56762;49.494;11.768;2023-01-28T03:44:59;0.78;87.10
69543;SHT31;56762;49.494;11.768;2023-01-28T03:47:31;0.79;87.05
69543;SHT31;56762;49.494;11.768;2023-01-28T03:49:59;0.78;87.05
69543;SHT31;56762;49.494;11.768;2023-01-28T03:52:29;0.79;87.00
69543;SHT31;56762;49.494;11.768;2023-01-28T03:54:59;0.81;86.74
69543;SHT31;56762;49.494;11.768;2023-01-28T03:57:27;0.82;86.73
69543;SHT31;56762;49.494;11.768;2023-01-28T03:59:57;0.88;86.39
69543;SHT31;56762;49.494;11.768;2023-01-28T04:02:25;0.87;86.91
69543;SHT31;56762;49.494;11.768;2023-01-28T04:04:53;0.89;86.82
69543;SHT31;56762;49.494;11.768;2023-01-28T04:07:24;0.91;86.64
69543;SHT31;56762;49.494;11.768;2023-01-28T04:09:52;0.87;86.14
69543;SHT31;56762;49.494;11.768;2023-01-28T04:12:21;0.87;86.83
69543;SHT31;56762;49.494;11.768;2023-01-28T04:14:50;0.91;86.74
69543;SHT31;56762;49.494;11.768;2023-01-28T04:17:18;0.87;86.22
69543;SHT31;56762;49.494;11.768;2023-01-28T04:19:46;0.89;85.99
69543;SHT31;56762;49.494;11.768;2023-01-28T04:22:13;0.88;85.98
69543;SHT31;56762;49.494;11.768;2023-01-28T04:24:41;0.85;85.93
69543;SHT31;56762;49.494;11.768;2023-01-28T04:27:09;0.87;86.17
69543;SHT31;56762;49.494;11.768;2023-01-28T04:29:39;0.93;86.06
69543;SHT31;56762;49.494;11.768;2023-01-28T04:32:07;0.95;85.54
69543;SHT31;56762;49.494;11.768;2023-01-28T04:34:37;0.96;85.90
69543;SHT31;56762;49.494;11.768;2023-01-28T04:37:05;0.96;85.86
69543;SHT31;56762;49.494;11.768;2023-01-28T04:39:33;0.93;85.61
69543;SHT31;56762;49.494;11.768;2023-01-28T04:42:00;0.91;85.67
69543;SHT31;56762;49.494;11.768;2023-01-28T04:44:29;0.95;85.84
69543;SHT31;56762;49.494;11.768;2023-01-28T04:46:58;0.85;85.92
69543;SHT31;56762;49.494;11.768;2023-01-28T04:49:26;0.84;86.02
69543;SHT31;56762;49.494;11.768;2023-01-28T04:51:54;0.82;86.10
69543;SHT31;56762;49.494;11.768;2023-01-28T04:54:21;0.82;86.43
69543;SHT31;56762;49.494;11.768;2023-01-28T04:56:49;0.84;86.52
69543;SHT31;56762;49.494;11.768;2023-01-28T04:59:17;0.82;86.54
69543;SHT31;56762;49.494;11.768;2023-01-28T05:01:46;0.84;86.19
69543;SHT31;56762;49.494;11.768;2023-01-28T05:04:16;0.92;86.57
69543;SHT31;56762;49.494;11.768;2023-01-28T05:06:44;0.91;86.15
69543;SHT31;56762;49.494;11.768;2023-01-28T05:09:12;0.89;85.76
69543;SHT31;56762;49.494;11.768;2023-01-28T05:11:40;0.91;86.00
69543;SHT31;56762;49.494;11.768;2023-01-28T05:14:08;0.84;86.23
69543;SHT31;56762;49.494;11.768;2023-01-28T05:16:36;0.87;86.16
69543;SHT31;56762;49.494;11.768;2023-01-28T05:19:04;0.89;85.97
69543;SHT31;56762;49.494;11.768;2023-01-28T05:21:33;0.91;86.07
69543;SHT31;56762;49.494;11.768;2023-01-28T05:24:01;0.88;86.51
69543;SHT31;56762;49.494;11.768;2023-01-28T05:26:29;0.89;86.22
69543;SHT31;56762;49.494;11.768;2023-01-28T05:28:57;0.87;86.36
69543;SHT31;56762;49.494;11.768;2023-01-28T05:31:25;0.85;86.51
69543;SHT31;56762;49.494;11.768;2023-01-28T05:33:53;0.81;86.72
69543;SHT31;56762;49.494;11.768;2023-01-28T05:36:21;0.84;86.86
69543;SHT31;56762;49.494;11.768;2023-01-28T05:38:50;0.89;86.47
69543;SHT31;56762;49.494;11.768;2023-01-28T05:41:18;0.85;86.58
69543;SHT31;56762;49.494;11.768;2023-01-28T05:43:46;0.87;86.50
69543;SHT31;56762;49.494;11.768;2023-01-28T05:46:13;0.82;86.98
69543;SHT31;56762;49.494;11.768;2023-01-28T05:48:42;0.84;87.16
69543;SHT31;56762;49.494;11.768;2023-01-28T05:51:11;0.84;87.20
69543;SHT31;56762;49.494;11.768;2023-01-28T05:53:39;0.89;87.19
69543;SHT31;56762;49.494;11.768;2023-01-28T05:56:08;0.92;86.76
69543;SHT31;56762;49.494;11.768;2023-01-28T05:58:36;0.92;86.65
69543;SHT31;56762;49.494;11.768;2023-01-28T06:01:04;0.91;86.90
69543;SHT31;56762;49.494;11.768;2023-01-28T06:03:32;0.85;86.85
69543;SHT31;56762;49.494;11.768;2023-01-28T06:06:00;0.87;86.80
69543;SHT31;56762;49.494;11.768;2023-01-28T06:08:28;0.84;86.86
69543;SHT31;56762;49.494;11.768;2023-01-28T06:10:56;0.82;86.82
69543;SHT31;56762;49.494;11.768;2023-01-28T06:13:25;0.87;87.09
69543;SHT31;56762;49.494;11.768;2023-01-28T06:15:53;0.85;86.78
69543;SHT31;56762;49.494;11.768;2023-01-28T06:18:21;0.88;86.60
69543;SHT31;56762;49.494;11.768;2023-01-28T06:20:49;0.85;86.69
69543;SHT31;56762;49.494;11.768;2023-01-28T06:23:17;0.88;86.65
69543;SHT31;56762;49.494;11.768;2023-01-28T06:25:45;0.82;86.87
69543;SHT31;56762;49.494;11.768;2023-01-28T06:28:13;0.84;87.24
69543;SHT31;56762;49.494;11.768;2023-01-28T06:30:47;0.82;87.33
69543;SHT31;56762;49.494;11.768;2023-01-28T06:33:14;0.85;86.88
69543;SHT31;56762;49.494;11.768;2023-01-28T06:35:43;0.84;87.19
69543;SHT31;56762;49.494;11.768;2023-01-28T06:38:11;0.87;86.62
69543;SHT31;56762;49.494;11.768;2023-01-28T06:40:42;0.84;86.77
69543;SHT31;56762;49.494;11.768;2023-01-28T06:43:10;0.87;86.78
69543;SHT31;56762;49.494;11.768;2023-01-28T06:45:38;0.85;87.00
69543;SHT31;56762;49.494;11.768;2023-01-28T06:48:07;0.85;86.86
69543;SHT31;56762;49.494;11.768;2023-01-28T06:50:35;0.78;86.92
69543;SHT31;56762;49.494;11.768;2023-01-28T06:53:04;0.84;86.47
69543;SHT31;56762;49.494;11.768;2023-01-28T06:55:32;0.85;86.69
69543;SHT31;56762;49.494;11.768;2023-01-28T06:58:00;0.84;86.80
69543;SHT31;56762;49.494;11.768;2023-01-28T07:00:28;0.81;86.56
69543;SHT31;56762;49.494;11.768;2023-01-28T07:02:57;0.88;86.58
69543;SHT31;56762;49.494;11.768;2023-01-28T07:05:27;0.89;86.13
69543;SHT31;56762;49.494;11.768;2023-01-28T07:07:55;0.93;86.27
69543;SHT31;56762;49.494;11.768;2023-01-28T07:10:23;0.93;86.35
69543;SHT31;56762;49.494;11.768;2023-01-28T07:12:51;0.96;86.32
69543;SHT31;56762;49.494;11.768;2023-01-28T07:15:19;0.93;86.11
69543;SHT31;56762;49.494;11.768;2023-01-28T07:17:47;0.92;86.12
69543;SHT31;56762;49.494;11.768;2023-01-28T07:20:15;0.88;86.61
69543;SHT31;56762;49.494;11.768;2023-01-28T07:22:45;0.95;86.45
69543;SHT31;56762;49.494;11.768;2023-01-28T07:25:14;0.98;86.61
69543;SHT31;56762;49.494;11.768;2023-01-28T07:27:46;0.98;87.00
69543;SHT31;56762;49.494;11.768;2023-01-28T07:30:15;0.96;87.21
69543;SHT31;56762;49.494;11.768;2023-01-28T07:32:44;1.06;87.20
69543;SHT31;56762;49.494;11.768;2023-01-28T07:35:12;1.08;86.40
69543;SHT31;56762;49.494;11.768;2023-01-28T07:37:51;1.05;86.91
69543;SHT31;56762;49.494;11.768;2023-01-28T07:40:20;1.05;86.86
69543;SHT31;56762;49.494;11.768;2023-01-28T07:42:49;1.03;86.85
69543;SHT31;56762;49.494;11.768;2023-01-28T07:45:17;0.98;86.77
69543;SHT31;56762;49.494;11.768;2023-01-28T07:47:52;0.99;87.04
69543;SHT31;56762;49.494;11.768;2023-01-28T07:50:21;1.00;87.12
69543;SHT31;56762;49.494;11.768;2023-01-28T07:52:50;1.08;87.84
69543;SHT31;56762;49.494;11.768;2023-01-28T07:55:18;1.13;87.37
69543;SHT31;56762;49.494;11.768;2023-01-28T07:57:50;1.15;86.80
69543;SHT31;56762;49.494;11.768;2023-01-28T08:00:20;1.12;87.35
69543;SHT31;56762;49.494;11.768;2023-01-28T08:02:49;1.13;87.42
69543;SHT31;56762;49.494;11.768;2023-01-28T08:05:18;1.10;87.43
69543;SHT31;56762;49.494;11.768;2023-01-28T08:07:48;1.16;87.36
69543;SHT31;56762;49.494;11.768;2023-01-28T08:10:18;1.18;87.05
69543;SHT31;56762;49.494;11.768;2023-01-28T08:12:52;1.22;87.53
69543;SHT31;56762;49.494;11.768;2023-01-28T08:15:21;1.22;87.54
69543;SHT31;56762;49.494;11.768;2023-01-28T08:17:49;1.23;87.23
69543;SHT31;56762;49.494;11.768;2023-01-28T08:20:17;1.23;87.40
69543;SHT31;56762;49.494;11.768;2023-01-28T08:22:45;1.23;87.26
69543;SHT31;56762;49.494;11.768;2023-01-28T08:25:13;1.26;87.57
69543;SHT31;56762;49.494;11.768;2023-01-28T08:27:43;1.33;87.26
69543;SHT31;56762;49.494;11.768;2023-01-28T08:30:11;1.25;86.97
69543;SHT31;56762;49.494;11.768;2023-01-28T08:32:39;1.28;86.65
69543;SHT31;56762;49.494;11.768;2023-01-28T08:35:08;1.28;86.82
69543;SHT31;56762;49.494;11.768;2023-01-28T08:37:36;1.23;86.84
69543;SHT31;56762;49.494;11.768;2023-01-28T08:40:04;1.29;86.81
69543;SHT31;56762;49.494;11.768;2023-01-28T08:42:32;1.32;87.38
69543;SHT31;56762;49.494;11.768;2023-01-28T08:45:02;1.36;86.52
69543;SHT31;56762;49.494;11.768;2023-01-28T08:47:30;1.33;85.63
69543;SHT31;56762;49.494;11.768;2023-01-28T08:49:59;1.28;85.84
69543;SHT31;56762;49.494;11.768;2023-01-28T08:52:27;1.26;85.32
69543;SHT31;56762;49.494;11.768;2023-01-28T08:54:55;1.32;85.77
69543;SHT31;56762;49.494;11.768;2023-01-28T08:57:23;1.39;85.51
69543;SHT31;56762;49.494;11.768;2023-01-28T08:59:50;1.43;85.81
69543;SHT31;56762;49.494;11.768;2023-01-28T09:02:20;1.49;85.60
69543;SHT31;56762;49.494;11.768;2023-01-28T09:04:58;1.50;84.74
69543;SHT31;56762;49.494;11.768;2023-01-28T09:07:26;1.53;84.86
69543;SHT31;56762;49.494;11.768;2023-01-28T09:09:54;1.60;84.95
69543;SHT31;56762;49.494;11.768;2023-01-28T09:12:21;1.71;84.44
69543;SHT31;56762;49.494;11.768;2023-01-28T09:14:49;1.75;84.85
69543;SHT31;56762;49.494;11.768;2023-01-28T09:17:17;1.75;83.58
69543;SHT31;56762;49.494;11.768;2023-01-28T09:19:47;1.77;83.21
69543;SHT31;56762;49.494;11.768;2023-01-28T09:22:16;1.73;82.76
69543;SHT31;56762;49.494;11.768;2023-01-28T09:24:44;1.68;82.11
69543;SHT31;56762;49.494;11.768;2023-01-28T09:27:12;1.71;83.22
69543;SHT31;56762;49.494;11.768;2023-01-28T09:29:40;1.77;83.02
69543;SHT31;56762;49.494;11.768;2023-01-28T09:32:09;1.77;82.29
69543;SHT31;56762;49.494;11.768;2023-01-28T09:34:37;1.78;82.58
69543;SHT31;56762;49.494;11.768;2023-01-28T09:37:07;1.85;81.89
69543;SHT31;56762;49.494;11.768;2023-01-28T09:39:37;1.82;81.48
69543;SHT31;56762;49.494;11.768;2023-01-28T09:42:19;1.81;81.80
69543;SHT31;56762;49.494;11.768;2023-01-28T09:44:59;1.84;81.29
69543;SHT31;56762;49.494;11.768;2023-01-28T09:47:32;1.93;80.85
69543;SHT31;56762;49.494;11.768;2023-01-28T09:50:05;1.84;80.61
69543;SHT31;56762;49.494;11.768;2023-01-28T09:52:38;1.71;81.10
69543;SHT31;56762;49.494;11.768;2023-01-28T09:55:14;1.70;81.42
69543;SHT31;56762;49.494;11.768;2023-01-28T09:57:47;1.75;81.71
69543;SHT31;56762;49.494;11.768;2023-01-28T10:00:20;1.71;81.41
69543;SHT31;56762;49.494;11.768;2023-01-28T10:03:19;1.57;80.62
69543;SHT31;56762;49.494;11.768;2023-01-28T10:05:57;1.63;80.04
69543;SHT31;56762;49.494;11.768;2023-01-28T10:08:40;1.63;79.39
69543;SHT31;56762;49.494;11.768;2023-01-28T10:11:15;1.66;79.43
69543;SHT31;56762;49.494;11.768;2023-01-28T10:13:51;1.67;79.35
69543;SHT31;56762;49.494;11.768;2023-01-28T10:16:28;1.70;79.32
69543;SHT31;56762;49.494;11.768;2023-01-28T10:19:03;1.78;79.54
69543;SHT31;56762;49.494;11.768;2023-01-28T10:21:36;1.73;79.97
69543;SHT31;56762;49.494;11.768;2023-01-28T10:24:13;1.77;79.49
69543;SHT31;56762;49.494;11.768;2023-01-28T10:26:43;1.74;79.87
69543;SHT31;56762;49.494;11.768;2023-01-28T10:29:16;1.71;80.28
69543;SHT31;56762;49.494;11.768;2023-01-28T10:31:51;1.78;80.24
69543;SHT31;56762;49.494;11.768;2023-01-28T10:34:21;1.84;78.99
69543;SHT31;56762;49.494;11.768;2023-01-28T10:36:50;1.78;78.58
69543;SHT31;56762;49.494;11.768;2023-01-28T10:39:21;1.91;78.65
69543;SHT31;56762;49.494;11.768;2023-01-28T10:41:50;1.75;77.82
69543;SHT31;56762;49.494;11.768;2023-01-28T10:44:30;1.78;77.94
69543;SHT31;56762;49.494;11.768;2023-01-28T10:47:01;1.71;78.12
69543;SHT31;56762;49.494;11.768;2023-01-28T10:49:40;1.77;77.75
69543;SHT31;56762;49.494;11.768;2023-01-28T10:52:12;1.70;77.29
69543;SHT31;56762;49.494;11.768;2023-01-28T10:54:41;1.70;77.60
69543;SHT31;56762;49.494;11.768;2023-01-28T10:57:11;1.67;76.79
69543;SHT31;56762;49.494;11.768;2023-01-28T10:59:41;1.64;77.29
69543;SHT31;56762;49.494;11.768;2023-01-28T11:02:24;1.74;77.05
69543;SHT31;56762;49.494;11.768;2023-01-28T11:05:01;1.78;77.94
69543;SHT31;56762;49.494;11.768;2023-01-28T11:07:30;1.88;77.14
69543;SHT31;56762;49.494;11.768;2023-01-28T11:10:00;1.93;76.08
69543;SHT31;56762;49.494;11.768;2023-01-28T11:12:29;1.95;77.24
69543;SHT31;56762;49.494;11.768;2023-01-28T11:15:00;2.01;77.17
69543;SHT31;56762;49.494;11.768;2023-01-28T11:17:31;1.99;77.22
69543;SHT31;56762;49.494;11.768;2023-01-28T11:20:09;2.14;76.31
69543;SHT31;56762;49.494;11.768;2023-01-28T11:22:41;2.01;76.78
69543;SHT31;56762;49.494;11.768;2023-01-28T11:25:16;1.91;76.42
69543;SHT31;56762;49.494;11.768;2023-01-28T11:27:46;1.87;76.80
69543;SHT31;56762;49.494;11.768;2023-01-28T11:30:21;1.81;76.61
69543;SHT31;56762;49.494;11.768;2023-01-28T11:32:57;1.80;76.93
69543;SHT31;56762;49.494;11.768;2023-01-28T11:35:27;1.90;77.25
69543;SHT31;56762;49.494;11.768;2023-01-28T11:37:56;1.93;75.64
69543;SHT31;56762;49.494;11.768;2023-01-28T11:40:28;2.02;75.96
69543;SHT31;56762;49.494;11.768;2023-01-28T11:42:56;1.93;76.01
69543;SHT31;56762;49.494;11.768;2023-01-28T11:45:34;2.04;75.47
69543;SHT31;56762;49.494;11.768;2023-01-28T11:48:20;1.85;75.16
69543;SHT31;56762;49.494;11.768;2023-01-28T11:50:54;1.98;75.84
69543;SHT31;56762;49.494;11.768;2023-01-28T11:53:56;2.05;75.43
69543;SHT31;56762;49.494;11.768;2023-01-28T11:56:45;2.08;75.73
69543;SHT31;56762;49.494;11.768;2023-01-28T11:59:27;1.81;75.14
69543;SHT31;56762;49.494;11.768;2023-01-28T12:02:08;1.82;75.68
69543;SHT31;56762;49.494;11.768;2023-01-28T12:04:54;1.84;74.79
69543;SHT31;56762;49.494;11.768;2023-01-28T12:07:34;1.78;75.96
69543;SHT31;56762;49.494;11.768;2023-01-28T12:10:13;1.87;76.03
69543;SHT31;56762;49.494;11.768;2023-01-28T12:12:55;1.94;75.11
69543;SHT31;56762;49.494;11.768;2023-01-28T12:15:59;1.94;74.90
69543;SHT31;56762;49.494;11.768;2023-01-28T12:18:39;2.09;74.20
69543;SHT31;56762;49.494;11.768;2023-01-28T12:21:19;1.93;74.49
69543;SHT31;56762;49.494;11.768;2023-01-28T12:24:00;1.85;74.83
69543;SHT31;56762;49.494;11.768;2023-01-28T12:26:38;2.05;75.42
69543;SHT31;56762;49.494;11.768;2023-01-28T12:29:20;2.19;74.00
69543;SHT31;56762;49.494;11.768;2023-01-28T12:32:02;2.09;74.08
69543;SHT31;56762;49.494;11.768;2023-01-28T12:34:56;2.17;73.66
69543;SHT31;56762;49.494;11.768;2023-01-28T12:37:39;2.14;73.46
69543;SHT31;56762;49.494;11.768;2023-01-28T12:40:19;2.14;74.06
69543;SHT31;56762;49.494;11.768;2023-01-28T12:42:53;2.02;74.12
69543;SHT31;56762;49.494;11.768;2023-01-28T12:45:29;1.95;73.99
69543;SHT31;56762;49.494;11.768;2023-01-28T12:48:03;1.95;74.13
69543;SHT31;56762;49.494;11.768;2023-01-28T12:50:40;1.87;74.75
69543;SHT31;56762;49.494;11.768;2023-01-28T12:53:19;1.75;74.35
69543;SHT31;56762;49.494;11.768;2023-01-28T12:55:54;1.82;74.61
69543;SHT31;56762;49.494;11.768;2023-01-28T12:58:29;1.88;74.31
69543;SHT31;56762;49.494;11.768;2023-01-28T13:01:04;2.09;73.97
69543;SHT31;56762;49.494;11.768;2023-01-28T13:03:37;2.11;73.57
69543;SHT31;56762;49.494;11.768;2023-01-28T13:06:09;1.93;73.06
69543;SHT31;56762;49.494;11.768;2023-01-28T13:08:40;2.04;73.55
69543;SHT31;56762;49.494;11.768;2023-01-28T13:11:12;2.07;72.78
69543;SHT31;56762;49.494;11.768;2023-01-28T13:13:43;2.12;73.73
69543;SHT31;56762;49.494;11.768;2023-01-28T13:16:13;2.05;73.50
69543;SHT31;56762;49.494;11.768;2023-01-28T13:18:45;2.05;73.92
69543;SHT31;56762;49.494;11.768;2023-01-28T13:21:16;2.08;74.03
69543;SHT31;56762;49.494;11.768;2023-01-28T13:24:06;2.07;73.11
69543;SHT31;56762;49.494;11.768;2023-01-28T13:26:46;1.88;74.05
69543;SHT31;56762;49.494;11.768;2023-01-28T13:29:19;1.80;74.68
69543;SHT31;56762;49.494;11.768;2023-01-28T13:31:52;1.61;74.74
69543;SHT31;56762;49.494;11.768;2023-01-28T13:34:30;1.70;75.14
69543;SHT31;56762;49.494;11.768;2023-01-28T13:37:12;1.81;74.10
69543;SHT31;56762;49.494;11.768;2023-01-28T13:39:47;1.73;74.41
69543;SHT31;56762;49.494;11.768;2023-01-28T13:42:24;1.88;74.63
69543;SHT31;56762;49.494;11.768;2023-01-28T13:44:53;1.99;74.39
69543;SHT31;56762;49.494;11.768;2023-01-28T13:47:29;1.90;74.34
69543;SHT31;56762;49.494;11.768;2023-01-28T13:50:01;1.84;74.42
69543;SHT31;56762;49.494;11.768;2023-01-28T13:52:31;1.88;74.32
69543;SHT31;56762;49.494;11.768;2023-01-28T13:55:03;1.73;74.28
69543;SHT31;56762;49.494;11.768;2023-01-28T14:03:55;1.97;73.94
69543;SHT31;56762;49.494;11.768;2023-01-28T14:09:54;1.75;75.02
69543;SHT31;56762;49.494;11.768;2023-01-28T14:12:44;1.73;74.65
69543;SHT31;56762;49.494;11.768;2023-01-28T14:15:45;1.81;74.66
69543;SHT31;56762;49.494;11.768;2023-01-28T14:18:24;1.82;75.36
69543;SHT31;56762;49.494;11.768;2023-01-28T14:20:55;1.77;74.06
69543;SHT31;56762;49.494;11.768;2023-01-28T14:23:27;1.77;74.67
69543;SHT31;56762;49.494;11.768;2023-01-28T14:26:06;1.87;74.90
69543;SHT31;56762;49.494;11.768;2023-01-28T14:28:43;1.82;74.64
69543;SHT31;56762;49.494;11.768;2023-01-28T14:31:21;1.85;75.11
69543;SHT31;56762;49.494;11.768;2023-01-28T14:33:51;1.91;74.47
69543;SHT31;56762;49.494;11.768;2023-01-28T14:36:20;1.82;74.38
69543;SHT31;56762;49.494;11.768;2023-01-28T14:38:49;1.82;74.45
69543;SHT31;56762;49.494;11.768;2023-01-28T14:41:22;1.80;74.94
69543;SHT31;56762;49.494;11.768;2023-01-28T14:43:51;1.80;74.32
69543;SHT31;56762;49.494;11.768;2023-01-28T14:46:36;1.82;74.35
69543;SHT31;56762;49.494;11.768;2023-01-28T14:49:19;1.77;74.87
69543;SHT31;56762;49.494;11.768;2023-01-28T14:52:09;1.82;74.35
69543;SHT31;56762;49.494;11.768;2023-01-28T14:54:59;1.68;74.33
69543;SHT31;56762;49.494;11.768;2023-01-28T14:57:44;1.67;74.76
69543;SHT31;56762;49.494;11.768;2023-01-28T15:00:17;1.53;74.42
69543;SHT31;56762;49.494;11.768;2023-01-28T15:02:46;1.53;75.00
69543;SHT31;56762;49.494;11.768;2023-01-28T15:05:17;1.51;74.25
69543;SHT31;56762;49.494;11.768;2023-01-28T15:07:47;1.39;74.80
69543;SHT31;56762;49.494;11.768;2023-01-28T15:10:18;1.37;75.31
69543;SHT31;56762;49.494;11.768;2023-01-28T15:12:49;1.33;74.84
69543;SHT31;56762;49.494;11.768;2023-01-28T15:15:24;1.18;74.72
69543;SHT31;56762;49.494;11.768;2023-01-28T15:17:58;1.16;75.81
69543;SHT31;56762;49.494;11.768;2023-01-28T15:20:27;1.26;74.76
69543;SHT31;56762;49.494;11.768;2023-01-28T15:22:56;1.12;75.23
69543;SHT31;56762;49.494;11.768;2023-01-28T15:25:27;1.18;75.87
69543;SHT31;56762;49.494;11.768;2023-01-28T15:27:58;1.30;75.03
69543;SHT31;56762;49.494;11.768;2023-01-28T15:30:30;1.25;75.47
69543;SHT31;56762;49.494;11.768;2023-01-28T15:33:01;1.19;74.81
69543;SHT31;56762;49.494;11.768;2023-01-28T15:35:29;1.02;75.30
69543;SHT31;56762;49.494;11.768;2023-01-28T15:37:59;0.87;75.38
69543;SHT31;56762;49.494;11.768;2023-01-28T15:40:28;0.91;75.86
69543;SHT31;56762;49.494;11.768;2023-01-28T15:42:57;0.99;75.67
69543;SHT31;56762;49.494;11.768;2023-01-28T15:45:26;0.92;75.14
69543;SHT31;56762;49.494;11.768;2023-01-28T15:48:02;0.75;76.05
69543;SHT31;56762;49.494;11.768;2023-01-28T15:50:30;0.56;76.21
69543;SHT31;56762;49.494;11.768;2023-01-28T15:53:00;0.56;76.99
69543;SHT31;56762;49.494;11.768;2023-01-28T15:55:32;0.62;76.29
69543;SHT31;56762;49.494;11.768;2023-01-28T15:58:19;0.56;76.63
69543;SHT31;56762;49.494;11.768;2023-01-28T16:01:02;0.47;76.58
69543;SHT31;56762;49.494;11.768;2023-01-28T16:03:31;0.56;76.78
69543;SHT31;56762;49.494;11.768;2023-01-28T16:06:01;0.50;76.33
69543;SHT31;56762;49.494;11.768;2023-01-28T16:08:33;0.41;75.90
69543;SHT31;56762;49.494;11.768;2023-01-28T16:11:04;0.31;76.04
69543;SHT31;56762;49.494;11.768;2023-01-28T16:13:33;0.38;76.03
69543;SHT31;56762;49.494;11.768;2023-01-28T16:16:02;0.30;76.20